Wasilla, AK (99623)

4:06 AM AKDT on October 24, 2014 (GMT -0800)
Kings Lake | Change Station
CLOSE
Current Station
Personal Weather Station
Location: Wasilla, AK
Elevation: 463 ft
Nearby Weather Stations

Elev 463 ft 61.62 °N, 149.37 °W | Updated 1 minute ago

Clear
Clear
19.7 °F
Feels Like 20 °F
N
0.0
Wind Variable Wind from ESE
Gusts 0.0 mph

Today
High -- | Low -- °F
--% Chance of Precip.
Yesterday
High -- | Low -- °F
Precip. -- in
9:05 AM 6:16 PM
New Moon, 0% visible
Pressure 29.76 in
Visibility 10.0 miles
Clouds Clear
Windchill 20 °F
Dew Point 17 °F
Humidity 89%
Rainfall 0.00 in
Snow Depth Not available.
UV 0 out of 12
Pollen Not available.
Air Quality Not available.
Flu Activity Sporadic
METAR PAWS 241156Z AUTO 00000KT 10SM CLR M06/M10 A2976 RMK AO1 11030 21060 52007

More Conditions Fewer Conditions

Pressure 29.76 in
Visibility 10.0 miles
Clouds Clear
Windchill 20 °F
Dew Point 17 °F
Humidity 89%
Rainfall 0.00 in
Snow Depth Not available.
UV 0 out of 12
Pollen Not available.
Air Quality Not available.
Flu Activity Sporadic
METAR PAWS 241156Z AUTO 00000KT 10SM CLR M06/M10 A2976 RMK AO1 11030 21060 52007

More Conditions Fewer Conditions

10-Day Weather Forecast

Almanac

Astronomy

Oct. 24, 2014 Rise Set
Actual Time 9:05 AM AKDT 6:16 PM AKDT
Civil Twilight 8:19 AM AKDT 7:02 PM AKDT
Nautical Twilight 7:28 AM AKDT 7:53 PM AKDT
Astronomical Twilight 6:37 AM AKDT 8:44 PM AKDT
Moon 10:07 AM AKDT 6:46 PM AKDT
Length of Visible Light 10h 43m
Length of Day
9h 10m
Tomorrow will be 5m 41s shorter.
New Moon, 0% of the Moon is Illuminated
Today
New Moon
Oct 30
First Quarter
Nov 6
Full
Nov 14
Last Quarter
Nov 22
New

Today's Extremes

State Highs State Lows

Community

WunderPhotos

Upload Photos

1,764,528 photos uploaded!

Nearby

Snow Depth

Station Depth Elevation
Point Mackenzie 1 in 200 ft
Indian Pass 6 in 2300 ft
Susitna Valley High 0 in 375 ft
Turnagain Pass 7 in 1880 ft
Moraine 0 in 2100 ft

Earthquake Activity

City Distance Mag. Time & Date
No recent earthquake activity has been reported nearby.
Minimum magnitude displayed is 2.5.

Coastal Water Temperatures

Place Temperature
No Stations Reporting

Nearby Weather Stations